Time;durP1;ratioP1;P1;durP2;ratioP2;P2;SDS_P1;SDS_P2;PMS_P1;PMS_P2;Temp;Humidity;BMP_temperature;BMP_pressure;BME280_temperature;BME280_humidity;BME280_pressure;Samples;Min_cycle;Max_cycle;Signal;HPM_P1;HPM_P2
2022/07/28 00:00:42;;;;;;;5.75;1.23;;;15.40;64.30;;;;;;5029119;28;20133;-69
2022/07/28 00:03:09;;;;;;;5.53;1.50;;;15.40;64.40;;;;;;5040045;28;20048;-69
2022/07/28 00:05:35;;;;;;;5.28;1.50;;;15.40;64.40;;;;;;5044576;28;20049;-69
2022/07/28 00:08:03;;;;;;;5.97;1.52;;;15.30;64.50;;;;;;5015336;28;20053;-69
2022/07/28 00:10:31;;;;;;;3.57;1.63;;;15.30;64.80;;;;;;5047729;28;20171;-70
2022/07/28 00:12:58;;;;;;;6.10;1.40;;;15.20;65.20;;;;;;5040255;28;20283;-70
2022/07/28 00:15:26;;;;;;;3.63;1.20;;;15.20;65.50;;;;;;5020416;28;20347;-69
2022/07/28 00:17:53;;;;;;;5.10;1.60;;;15.20;64.80;;;;;;5037649;28;20306;-69
2022/07/28 00:20:20;;;;;;;4.53;1.50;;;15.20;65.00;;;;;;5038973;28;20049;-69
2022/07/28 00:22:47;;;;;;;5.38;1.30;;;15.10;65.40;;;;;;5043973;28;20836;-69
2022/07/28 00:25:14;;;;;;;3.63;1.40;;;15.10;65.40;;;;;;5036444;28;20150;-70
2022/07/28 00:27:41;;;;;;;5.50;1.40;;;15.10;65.60;;;;;;5028938;28;20432;-69
2022/07/28 00:30:08;;;;;;;6.07;1.40;;;15.10;65.90;;;;;;5046727;28;20041;-69
2022/07/28 00:32:36;;;;;;;5.22;1.20;;;15.00;66.00;;;;;;5030245;28;20087;-70
2022/07/28 00:35:03;;;;;;;9.47;1.97;;;15.00;66.10;;;;;;5029056;28;20045;-69
2022/07/28 00:37:31;;;;;;;4.80;1.38;;;15.00;66.30;;;;;;5044307;28;20052;-70
2022/07/28 00:39:58;;;;;;;4.07;1.45;;;14.90;66.80;;;;;;5023524;28;20391;-69
2022/07/28 00:42:25;;;;;;;5.45;1.85;;;14.80;66.90;;;;;;5033214;28;20049;-69
2022/07/28 00:44:52;;;;;;;5.45;1.77;;;14.80;67.10;;;;;;5038035;28;20491;-70
2022/07/28 00:47:19;;;;;;;4.25;1.30;;;14.80;66.90;;;;;;5043167;28;20045;-70
2022/07/28 00:49:45;;;;;;;5.85;1.60;;;14.80;66.90;;;;;;5045142;28;20045;-67
2022/07/28 00:52:11;;;;;;;4.82;1.40;;;14.80;66.80;;;;;;5028544;28;20051;-66
2022/07/28 00:54:38;;;;;;;3.50;1.25;;;14.80;67.00;;;;;;5044194;28;20970;-67
2022/07/28 00:57:05;;;;;;;7.43;1.60;;;14.80;66.80;;;;;;5009774;28;20132;-67
2022/07/28 00:59:32;;;;;;;6.05;1.50;;;14.70;66.80;;;;;;5035685;28;20052;-66
2022/07/28 01:01:59;;;;;;;3.58;1.23;;;14.80;66.80;;;;;;5044480;28;20053;-66
2022/07/28 01:04:26;;;;;;;5.40;1.60;;;14.80;66.70;;;;;;5041584;28;20136;-66
2022/07/28 01:07:32;;;;;;;4.63;1.30;;;14.70;66.80;;;;;;5044840;28;20081;-66
2022/07/28 01:10:40;;;;;;;3.45;1.23;;;14.70;66.60;;;;;;5040238;28;20530;-67
2022/07/28 01:13:12;;;;;;;4.55;1.50;;;14.70;67.00;;;;;;5018962;28;20083;-65
2022/07/28 01:15:47;;;;;;;5.15;1.67;;;14.60;67.20;;;;;;5045241;28;20055;-66
2022/07/28 01:18:19;;;;;;;4.53;1.42;;;14.60;67.00;;;;;;5002851;28;20071;-70
2022/07/28 01:20:49;;;;;;;6.45;1.63;;;14.60;67.10;;;;;;5037777;28;20463;-69
2022/07/28 01:23:35;;;;;;;5.63;1.40;;;14.50;67.00;;;;;;5024642;28;20416;-70
2022/07/28 01:26:33;;;;;;;10.27;1.70;;;14.50;67.30;;;;;;5046576;28;20091;-70
2022/07/28 01:29:08;;;;;;;5.93;1.27;;;14.40;67.50;;;;;;5028300;28;20344;-71
2022/07/28 01:31:55;;;;;;;6.57;1.42;;;14.40;67.80;;;;;;5011706;28;20048;-69
2022/07/28 01:34:26;;;;;;;6.90;1.73;;;14.40;67.80;;;;;;5044547;28;20048;-69
2022/07/28 01:36:56;;;;;;;5.60;1.58;;;14.30;67.90;;;;;;5042460;28;20049;-70
2022/07/28 01:39:26;;;;;;;5.43;1.40;;;14.20;68.90;;;;;;5044214;28;20120;-69
2022/07/28 01:41:53;;;;;;;6.03;1.80;;;14.20;68.60;;;;;;5028216;28;20044;-70
2022/07/28 01:44:22;;;;;;;6.82;1.60;;;14.10;69.00;;;;;;5027495;28;20045;-69
2022/07/28 01:46:49;;;;;;;3.88;1.45;;;14.10;69.50;;;;;;5034716;28;20053;-69
2022/07/28 01:49:17;;;;;;;3.85;1.48;;;14.00;70.40;;;;;;5045918;28;20044;-70
2022/07/28 01:51:43;;;;;;;8.13;2.10;;;14.00;71.40;;;;;;5027113;28;20037;-69
2022/07/28 01:54:11;;;;;;;4.70;1.52;;;13.90;73.30;;;;;;5042283;28;20271;-69
2022/07/28 01:56:38;;;;;;;5.75;2.05;;;13.80;73.50;;;;;;5045900;28;20073;-70
2022/07/28 01:59:05;;;;;;;5.63;1.80;;;13.80;73.40;;;;;;5024359;28;20128;-70
2022/07/28 02:01:35;;;;;;;5.27;1.50;;;13.80;74.10;;;;;;5027459;28;20052;-70
2022/07/28 02:04:04;;;;;;;7.32;2.28;;;13.80;73.70;;;;;;5045608;28;20060;-70
2022/07/28 02:06:31;;;;;;;3.28;1.50;;;13.70;73.00;;;;;;5046741;28;20262;-70
2022/07/28 02:08:59;;;;;;;6.10;1.52;;;13.70;73.40;;;;;;5045053;28;20049;-70
2022/07/28 02:11:41;;;;;;;6.47;1.70;;;13.70;73.10;;;;;;5021837;28;20041;-70
2022/07/28 02:14:16;;;;;;;4.50;1.48;;;13.70;73.60;;;;;;5036270;28;20045;-70
2022/07/28 02:16:47;;;;;;;5.28;1.60;;;13.70;73.60;;;;;;5019930;28;20052;-70
2022/07/28 02:19:14;;;;;;;3.72;1.50;;;13.60;73.70;;;;;;5041211;28;20155;-70
2022/07/28 02:21:41;;;;;;;3.35;1.60;;;13.60;74.00;;;;;;5026964;28;20063;-70
2022/07/28 02:24:08;;;;;;;6.45;1.77;;;13.50;73.90;;;;;;5036271;28;20100;-70
2022/07/28 02:26:37;;;;;;;8.20;2.10;;;13.50;74.60;;;;;;5032186;28;20150;-70
2022/07/28 02:29:05;;;;;;;4.20;1.40;;;13.40;74.70;;;;;;5010645;28;20555;-70
2022/07/28 02:32:11;;;;;;;5.07;1.52;;;13.40;74.70;;;;;;5047122;28;20140;-70
2022/07/28 02:34:38;;;;;;;6.90;2.00;;;13.40;74.70;;;;;;5042521;28;20045;-70
2022/07/28 02:37:07;;;;;;;5.13;1.83;;;13.50;74.50;;;;;;5025757;28;20183;-70
2022/07/28 02:39:50;;;;;;;6.07;1.80;;;13.40;74.20;;;;;;5042657;28;20184;-70
2022/07/28 02:42:24;;;;;;;6.20;1.92;;;13.40;73.70;;;;;;5038145;28;20041;-69
2022/07/28 02:45:02;;;;;;;4.88;1.50;;;13.40;74.10;;;;;;5029702;28;20084;-70
2022/07/28 02:47:31;;;;;;;5.32;1.42;;;13.30;74.40;;;;;;5030323;28;20088;-70
2022/07/28 02:49:58;;;;;;;6.63;1.67;;;13.30;74.20;;;;;;5033692;28;20103;-70
2022/07/28 02:52:25;;;;;;;6.88;2.20;;;13.30;74.10;;;;;;5027293;28;20057;-72
2022/07/28 02:54:52;;;;;;;6.18;1.95;;;13.30;74.20;;;;;;5017900;28;20052;-69
2022/07/28 02:57:19;;;;;;;4.70;1.55;;;13.20;74.70;;;;;;5021881;28;20045;-70
2022/07/28 02:59:45;;;;;;;7.35;1.92;;;13.20;74.70;;;;;;5050233;28;20045;-69
2022/07/28 03:02:12;;;;;;;5.72;1.52;;;13.10;75.50;;;;;;5042813;28;20045;-70
2022/07/28 03:04:57;;;;;;;4.53;1.83;;;13.10;75.20;;;;;;5045676;28;20037;-70
2022/07/28 03:07:28;;;;;;;4.13;1.92;;;13.20;75.10;;;;;;5044761;28;20060;-70
2022/07/28 03:09:56;;;;;;;6.40;1.70;;;13.20;74.80;;;;;;5043767;28;20042;-69
2022/07/28 03:12:23;;;;;;;10.10;2.58;;;13.20;75.20;;;;;;5030857;28;20057;-69
2022/07/28 03:14:50;;;;;;;7.25;1.70;;;13.20;75.40;;;;;;5043143;28;20045;-70
2022/07/28 03:17:18;;;;;;;9.98;2.75;;;13.20;74.60;;;;;;5041187;28;20045;-70
2022/07/28 03:19:45;;;;;;;5.38;1.80;;;13.20;74.40;;;;;;5029570;28;20056;-69
2022/07/28 03:22:13;;;;;;;5.55;2.00;;;13.10;74.50;;;;;;5027764;28;20053;-70
2022/07/28 03:24:46;;;;;;;6.00;2.03;;;12.90;74.60;;;;;;5040220;28;20380;-70
2022/07/28 03:27:29;;;;;;;3.25;1.90;;;12.90;75.40;;;;;;5017606;28;20049;-70
2022/07/28 03:30:18;;;;;;;4.45;1.77;;;12.80;75.90;;;;;;5040569;28;20137;-70
2022/07/28 03:32:51;;;;;;;;;;;12.80;76.50;;;;;;5017295;28;20094;-69
2022/07/28 03:35:18;;;;;;;6.35;1.98;;;12.60;76.40;;;;;;5047660;28;19916;-70
2022/07/28 03:37:55;;;;;;;6.10;1.67;;;12.70;75.60;;;;;;5043721;28;20049;-70
2022/07/28 03:40:25;;;;;;;6.47;2.03;;;12.80;75.50;;;;;;5030473;28;20135;-70
2022/07/28 03:42:52;;;;;;;5.03;1.73;;;12.80;75.10;;;;;;5034622;28;20061;-69
2022/07/28 03:45:20;;;;;;;4.60;2.00;;;12.70;75.80;;;;;;5045649;28;20045;-69
2022/07/28 03:47:57;;;;;;;8.52;2.20;;;12.70;75.80;;;;;;5048291;28;20132;-69
2022/07/28 03:50:29;;;;;;;3.95;1.52;;;12.60;76.30;;;;;;5035339;28;20491;-70
2022/07/28 03:52:57;;;;;;;4.45;1.73;;;12.60;76.00;;;;;;5023640;28;20612;-69
2022/07/28 03:55:23;;;;;;;4.18;1.77;;;12.70;75.70;;;;;;5045777;28;20414;-68
2022/07/28 03:57:51;;;;;;;4.03;1.85;;;12.70;75.60;;;;;;5038779;28;20045;-70
2022/07/28 04:00:19;;;;;;;6.40;2.03;;;12.60;75.90;;;;;;5043703;28;20056;-70
2022/07/28 04:02:45;;;;;;;7.70;2.43;;;12.70;75.60;;;;;;5039580;28;20045;-70
2022/07/28 04:05:12;;;;;;;5.97;1.75;;;12.60;75.50;;;;;;5039776;28;20573;-69
2022/07/28 04:07:38;;;;;;;6.85;2.10;;;12.60;75.70;;;;;;5047853;28;20435;-70
2022/07/28 04:10:09;;;;;;;4.32;1.80;;;12.60;76.00;;;;;;5045513;28;20525;-70
2022/07/28 04:12:56;;;;;;;7.85;2.00;;;12.60;75.80;;;;;;5030663;28;20075;-70
2022/07/28 04:15:24;;;;;;;5.22;1.80;;;12.60;76.30;;;;;;5024192;28;20486;-69
2022/07/28 04:17:53;;;;;;;7.65;2.17;;;12.60;76.20;;;;;;5035562;28;20057;-70
2022/07/28 04:20:22;;;;;;;5.47;2.15;;;12.80;75.90;;;;;;5028776;28;20140;-69
2022/07/28 04:22:49;;;;;;;9.25;2.00;;;12.80;75.80;;;;;;5026472;28;20107;-70
2022/07/28 04:25:20;;;;;;;7.28;2.10;;;12.90;75.70;;;;;;5038523;28;20057;-70
2022/07/28 04:27:47;;;;;;;6.05;2.17;;;13.00;75.30;;;;;;5048445;28;20106;-70
2022/07/28 04:30:16;;;;;;;5.00;1.95;;;13.00;75.40;;;;;;5012669;28;20048;-70
2022/07/28 04:32:44;;;;;;;7.00;2.17;;;13.00;74.90;;;;;;5032377;28;20527;-69
2022/07/28 04:35:11;;;;;;;8.48;2.30;;;12.90;75.40;;;;;;5032442;28;20060;-70
2022/07/28 04:37:38;;;;;;;6.70;2.10;;;12.90;75.40;;;;;;5047818;28;20044;-69
2022/07/28 04:40:08;;;;;;;7.18;2.13;;;12.90;75.70;;;;;;5031172;28;20647;-69
2022/07/28 04:42:37;;;;;;;7.18;2.10;;;13.00;75.70;;;;;;5028625;28;20068;-69
2022/07/28 04:45:07;;;;;;;4.03;1.67;;;13.00;75.60;;;;;;5023285;28;20486;-69
2022/07/28 04:47:35;;;;;;;5.53;1.83;;;13.10;75.60;;;;;;5048228;28;20053;-69
2022/07/28 04:50:03;;;;;;;;;;;13.10;75.10;;;;;;5028404;28;20132;-68
2022/07/28 04:52:30;;;;;;;6.60;2.20;;;13.10;75.10;;;;;;5031800;28;19912;-69
2022/07/28 04:54:57;;;;;;;5.88;2.13;;;13.10;75.40;;;;;;5028863;28;20354;-69
2022/07/28 04:57:27;;;;;;;8.05;2.28;;;13.10;75.60;;;;;;5047298;28;20357;-69
2022/07/28 04:59:55;;;;;;;6.65;2.63;;;13.10;75.60;;;;;;5044544;28;20502;-68
2022/07/28 05:02:22;;;;;;;7.45;2.22;;;13.10;75.80;;;;;;5011230;28;20624;-69
2022/07/28 05:04:51;;;;;;;5.20;2.60;;;13.20;75.50;;;;;;5051074;28;20045;-69
2022/07/28 05:07:16;;;;;;;5.75;2.40;;;13.20;75.50;;;;;;5036944;28;20060;-68
2022/07/28 05:09:42;;;;;;;5.32;2.08;;;13.20;75.70;;;;;;5040527;28;20450;-68
2022/07/28 05:12:08;;;;;;;5.20;1.88;;;13.30;75.80;;;;;;5024818;28;20045;-70
2022/07/28 05:14:34;;;;;;;6.03;1.95;;;13.30;75.80;;;;;;5012657;28;20041;-69
2022/07/28 05:17:00;;;;;;;6.47;2.13;;;13.40;76.00;;;;;;5039853;28;20435;-68
2022/07/28 05:19:26;;;;;;;7.47;2.28;;;13.50;76.00;;;;;;5048631;28;20064;-70
2022/07/28 05:21:51;;;;;;;8.13;2.72;;;13.50;75.70;;;;;;5022712;28;20045;-68
2022/07/28 05:24:17;;;;;;;5.15;1.95;;;13.50;75.90;;;;;;5023499;28;20418;-69
2022/07/28 05:26:43;;;;;;;5.10;2.22;;;13.50;75.90;;;;;;5044746;28;20125;-68
2022/07/28 05:29:09;;;;;;;4.53;2.22;;;13.50;75.90;;;;;;5028207;28;20048;-68
2022/07/28 05:31:36;;;;;;;7.60;2.00;;;13.50;76.10;;;;;;5008097;28;20501;-69
2022/07/28 05:34:02;;;;;;;6.45;1.90;;;13.50;76.10;;;;;;5043762;28;20049;-68
2022/07/28 05:36:29;;;;;;;6.10;2.33;;;13.60;76.10;;;;;;5017629;28;20518;-68
2022/07/28 05:38:56;;;;;;;6.32;2.10;;;13.70;75.70;;;;;;5027155;28;20086;-69
2022/07/28 05:41:24;;;;;;;7.03;2.38;;;13.60;75.60;;;;;;5022701;28;20049;-68
2022/07/28 05:43:51;;;;;;;5.68;2.28;;;13.60;75.70;;;;;;5037609;28;20049;-69
2022/07/28 05:46:18;;;;;;;7.30;2.58;;;13.70;75.70;;;;;;5037624;28;20364;-69
2022/07/28 05:48:45;;;;;;;8.70;2.10;;;13.80;75.60;;;;;;5033625;28;20125;-68
2022/07/28 05:51:12;;;;;;;9.85;2.25;;;13.80;75.70;;;;;;5043761;28;20548;-69
2022/07/28 05:53:39;;;;;;;5.57;2.10;;;13.90;75.60;;;;;;5036815;28;20056;-68
2022/07/28 05:56:06;;;;;;;6.63;2.00;;;13.90;75.60;;;;;;5042170;28;20055;-69
2022/07/28 05:58:33;;;;;;;6.78;2.25;;;13.90;75.70;;;;;;5010165;28;20053;-68
2022/07/28 06:01:01;;;;;;;6.32;2.10;;;14.00;75.50;;;;;;5011682;28;20061;-68
2022/07/28 06:03:29;;;;;;;5.63;2.20;;;14.10;75.20;;;;;;5009936;28;20052;-68
2022/07/28 06:05:56;;;;;;;8.02;2.30;;;14.20;74.80;;;;;;5014825;28;20049;-68
2022/07/28 06:08:23;;;;;;;6.45;2.10;;;14.30;74.30;;;;;;5011848;28;20736;-68
2022/07/28 06:13:39;;;;;;;5.60;1.90;;;14.40;73.60;;;;;;5045396;28;20052;-69
2022/07/28 06:16:06;;;;;;;5.70;2.00;;;14.50;73.00;;;;;;5033485;28;20045;-69
2022/07/28 06:18:33;;;;;;;6.15;1.80;;;14.50;72.70;;;;;;5047621;28;20058;-69
2022/07/28 06:21:00;;;;;;;3.92;1.60;;;14.60;72.60;;;;;;5050797;28;20445;-68
2022/07/28 06:23:26;;;;;;;8.55;2.03;;;14.70;72.60;;;;;;5035765;28;20083;-68
2022/07/28 06:25:53;;;;;;;7.00;1.80;;;14.70;72.30;;;;;;5048159;28;20077;-69
2022/07/28 06:28:20;;;;;;;7.10;2.10;;;14.80;72.20;;;;;;5047651;28;20091;-68
2022/07/28 06:30:48;;;;;;;4.80;1.67;;;14.80;71.80;;;;;;5025311;28;20037;-69
2022/07/28 06:33:15;;;;;;;7.57;2.00;;;14.80;71.30;;;;;;5046065;28;20045;-69
2022/07/28 06:35:42;;;;;;;5.97;2.20;;;14.80;71.10;;;;;;5051316;28;20053;-71
2022/07/28 06:38:09;;;;;;;6.65;2.03;;;14.90;70.90;;;;;;5026535;28;20049;-69
2022/07/28 06:40:36;;;;;;;6.85;1.65;;;14.90;70.40;;;;;;5047286;28;20076;-70
2022/07/28 06:43:03;;;;;;;5.80;1.58;;;14.90;70.10;;;;;;5047118;28;20056;-69
2022/07/28 06:45:31;;;;;;;8.70;1.65;;;15.00;70.00;;;;;;5033662;28;20053;-70
2022/07/28 06:47:58;;;;;;;4.32;1.60;;;15.00;69.70;;;;;;5033065;28;20041;-70
2022/07/28 06:50:24;;;;;;;6.00;1.45;;;15.00;69.50;;;;;;5044255;28;20049;-69
2022/07/28 06:52:51;;;;;;;9.30;1.63;;;15.00;69.40;;;;;;5044758;28;20041;-69
2022/07/28 06:55:19;;;;;;;6.43;1.80;;;15.10;69.30;;;;;;5027087;28;20356;-71
2022/07/28 06:57:46;;;;;;;8.88;1.90;;;15.10;68.70;;;;;;5029015;28;20041;-72
2022/07/28 07:00:13;;;;;;;7.68;1.55;;;15.20;68.50;;;;;;5039622;28;20076;-72
2022/07/28 07:02:41;;;;;;;9.90;1.73;;;15.20;68.40;;;;;;5033294;28;20052;-72
2022/07/28 07:05:08;;;;;;;10.10;1.80;;;15.30;68.30;;;;;;5021039;28;20045;-73
2022/07/28 07:07:34;;;;;;;7.43;2.10;;;15.30;67.60;;;;;;5038676;28;20049;-72
2022/07/28 07:10:03;;;;;;;7.75;1.30;;;15.40;66.80;;;;;;5041972;28;20234;-71
2022/07/28 07:12:34;;;;;;;7.50;1.50;;;15.50;66.80;;;;;;5041540;28;20136;-72
2022/07/28 07:15:03;;;;;;;10.15;2.08;;;15.50;66.20;;;;;;5029668;28;20049;-72
2022/07/28 07:17:30;;;;;;;10.35;1.65;;;15.60;66.10;;;;;;5048639;28;20474;-70
2022/07/28 07:19:57;;;;;;;5.68;1.48;;;15.70;65.80;;;;;;5046272;28;20045;-70
2022/07/28 07:22:23;;;;;;;6.90;1.70;;;15.80;65.30;;;;;;5046395;28;20050;-71
2022/07/28 07:24:50;;;;;;;4.32;1.63;;;15.80;64.80;;;;;;5042544;28;20068;-69
2022/07/28 07:27:17;;;;;;;14.77;1.90;;;15.90;65.20;;;;;;5038327;28;20145;-69
2022/07/28 07:29:43;;;;;;;4.97;1.42;;;16.00;64.90;;;;;;5027357;28;20492;-70
2022/07/28 07:32:09;;;;;;;4.85;1.35;;;16.10;65.00;;;;;;5039818;28;20050;-70
2022/07/28 07:34:38;;;;;;;7.97;1.83;;;16.10;64.00;;;;;;5047131;28;20093;-69
2022/07/28 07:37:05;;;;;;;5.45;1.50;;;16.20;64.10;;;;;;5043873;28;20517;-71
2022/07/28 07:39:32;;;;;;;6.50;1.60;;;16.30;63.30;;;;;;5036957;28;20052;-70
2022/07/28 07:41:59;;;;;;;7.22;1.50;;;16.40;62.90;;;;;;5028635;28;20550;-70
2022/07/28 07:44:26;;;;;;;7.85;1.67;;;16.50;62.50;;;;;;5047938;28;20132;-69
2022/07/28 07:46:53;;;;;;;7.20;1.33;;;16.50;61.40;;;;;;5048759;28;20107;-69
2022/07/28 07:49:20;;;;;;;9.10;1.30;;;16.60;61.60;;;;;;5048951;28;20111;-69
2022/07/28 07:51:47;;;;;;;3.95;1.40;;;16.70;60.80;;;;;;5014726;28;20045;-70
2022/07/28 07:54:14;;;;;;;5.72;1.75;;;16.80;60.30;;;;;;5037004;28;20049;-70
2022/07/28 07:56:39;;;;;;;4.97;1.50;;;16.80;60.10;;;;;;5013834;28;20083;-70
2022/07/28 07:59:07;;;;;;;6.78;1.25;;;16.80;60.10;;;;;;5038722;28;20502;-69
2022/07/28 08:01:34;;;;;;;4.88;1.30;;;16.90;60.10;;;;;;5047650;28;20103;-70
2022/07/28 08:04:01;;;;;;;6.55;1.30;;;17.00;59.70;;;;;;5030018;28;20049;-69
2022/07/28 08:06:28;;;;;;;5.75;1.30;;;17.00;60.00;;;;;;5036771;28;20077;-69
2022/07/28 08:08:54;;;;;;;5.72;1.23;;;17.10;59.90;;;;;;5008245;28;20052;-69
2022/07/28 08:11:21;;;;;;;5.13;1.50;;;17.20;59.50;;;;;;5044425;28;20040;-69
2022/07/28 08:13:48;;;;;;;3.85;1.20;;;17.30;59.40;;;;;;5047875;28;20045;-69
2022/07/28 08:16:15;;;;;;;9.18;1.42;;;17.30;59.20;;;;;;5028745;28;20055;-70
2022/07/28 08:18:41;;;;;;;5.93;1.35;;;17.40;58.90;;;;;;5040097;28;20425;-70
2022/07/28 08:21:08;;;;;;;4.72;1.10;;;17.40;58.40;;;;;;5042822;28;20060;-69
2022/07/28 08:23:34;;;;;;;7.72;1.73;;;17.50;58.00;;;;;;5028799;28;20119;-70
2022/07/28 08:26:01;;;;;;;10.20;2.03;;;17.60;58.20;;;;;;5029176;28;20053;-69
2022/07/28 08:28:28;;;;;;;7.88;1.30;;;17.60;58.10;;;;;;5021621;28;20442;-71
2022/07/28 08:30:55;;;;;;;8.30;1.60;;;17.70;57.70;;;;;;5011870;28;20041;-70
2022/07/28 08:33:22;;;;;;;7.97;1.48;;;17.70;57.20;;;;;;5048387;28;20049;-70
2022/07/28 08:35:49;;;;;;;4.82;1.30;;;17.80;57.50;;;;;;5038330;28;20055;-70
2022/07/28 08:38:16;;;;;;;9.13;1.83;;;17.90;56.90;;;;;;5045630;28;20053;-70
2022/07/28 08:40:44;;;;;;;7.38;1.60;;;17.90;57.30;;;;;;5040037;28;20209;-69
2022/07/28 08:43:31;;;;;;;5.22;1.38;;;18.00;57.10;;;;;;5043441;28;20387;-70
2022/07/28 08:46:02;;;;;;;3.63;1.23;;;18.10;57.10;;;;;;5052311;28;20446;-70
2022/07/28 08:48:30;;;;;;;5.43;1.27;;;18.20;56.60;;;;;;5070749;28;20040;-70
2022/07/28 08:51:00;;;;;;;5.60;1.25;;;18.20;56.60;;;;;;5057309;28;20041;-69
2022/07/28 08:53:29;;;;;;;4.70;1.27;;;18.20;55.60;;;;;;5055403;28;20064;-69
2022/07/28 08:56:02;;;;;;;7.30;1.40;;;18.30;56.20;;;;;;5052250;28;20059;-69
2022/07/28 08:58:30;;;;;;;4.65;1.10;;;18.30;55.50;;;;;;5054771;28;20077;-69
2022/07/28 09:00:57;;;;;;;4.05;0.90;;;18.40;54.90;;;;;;5009225;28;20048;-69
2022/07/28 09:03:27;;;;;;;5.75;1.42;;;18.30;55.30;;;;;;5060728;28;20091;-69
2022/07/28 09:05:55;;;;;;;7.78;1.42;;;18.40;55.50;;;;;;5032816;28;20060;-70
2022/07/28 09:08:23;;;;;;;5.85;1.40;;;18.50;55.70;;;;;;5039632;28;20044;-70
2022/07/28 09:10:49;;;;;;;2.05;0.98;;;18.60;55.50;;;;;;5034972;28;20048;-70
2022/07/28 09:13:17;;;;;;;5.53;1.20;;;18.70;54.90;;;;;;5041964;28;20040;-70
2022/07/28 09:15:45;;;;;;;3.88;1.40;;;18.80;53.60;;;;;;5049180;28;20056;-69
2022/07/28 09:18:15;;;;;;;3.03;0.90;;;18.90;54.00;;;;;;5046564;28;20048;-70
2022/07/28 09:20:43;;;;;;;6.25;1.38;;;19.00;54.10;;;;;;5032429;28;20061;-72
2022/07/28 09:23:10;;;;;;;5.30;1.50;;;19.10;53.70;;;;;;5052828;28;20044;-70
2022/07/28 09:25:35;;;;;;;3.78;1.00;;;19.10;54.00;;;;;;5030894;28;20057;-69
2022/07/28 09:28:13;;;;;;;5.82;1.38;;;19.20;54.30;;;;;;5054462;28;20112;-71
2022/07/28 09:30:41;;;;;;;6.68;1.30;;;19.20;53.60;;;;;;5028978;28;20455;-71
2022/07/28 09:33:26;;;;;;;7.32;1.45;;;19.30;53.70;;;;;;5035445;28;20047;-70
2022/07/28 09:35:56;;;;;;;6.78;1.15;;;19.30;53.30;;;;;;5034464;28;20056;-69
2022/07/28 09:38:23;;;;;;;5.13;1.30;;;19.30;52.60;;;;;;5034072;28;20160;-70
2022/07/28 09:41:03;;;;;;;5.80;1.05;;;19.30;53.10;;;;;;5048908;28;20478;-70
2022/07/28 09:43:35;;;;;;;9.18;1.38;;;19.30;53.10;;;;;;5015931;28;20076;-70
2022/07/28 09:46:14;;;;;;;7.63;1.40;;;19.30;52.90;;;;;;5051223;28;20049;-70
2022/07/28 09:48:55;;;;;;;4.57;1.20;;;19.50;52.30;;;;;;5044375;28;20045;-69
2022/07/28 09:51:32;;;;;;;5.57;1.25;;;19.60;52.70;;;;;;5036933;28;20102;-70
2022/07/28 09:54:09;;;;;;;7.47;1.63;;;19.70;52.00;;;;;;5036408;28;20045;-70
2022/07/28 09:56:36;;;;;;;7.47;1.58;;;19.70;51.00;;;;;;5058037;28;20045;-70
2022/07/28 09:59:02;;;;;;;5.10;1.30;;;19.70;51.60;;;;;;5031725;28;20049;-70
2022/07/28 10:01:28;;;;;;;5.60;1.20;;;19.80;51.20;;;;;;5031486;28;20142;-70
2022/07/28 10:03:56;;;;;;;10.70;1.85;;;19.90;51.20;;;;;;5041015;28;20064;-70
2022/07/28 10:06:29;;;;;;;2.97;1.13;;;20.00;50.70;;;;;;5055988;28;20137;-70
2022/07/28 10:08:56;;;;;;;7.15;1.30;;;20.00;51.50;;;;;;5043079;28;20049;-70
2022/07/28 10:11:25;;;;;;;10.52;1.35;;;20.00;50.40;;;;;;5054098;28;20041;-70
2022/07/28 10:13:59;;;;;;;3.25;1.02;;;20.10;50.00;;;;;;5030797;28;20053;-70
2022/07/28 10:16:51;;;;;;;3.90;1.23;;;20.10;50.90;;;;;;5035085;28;20055;-71
2022/07/28 10:19:17;;;;;;;9.27;1.35;;;20.30;49.30;;;;;;5052937;28;20539;-70
2022/07/28 10:21:47;;;;;;;4.95;1.02;;;20.50;49.80;;;;;;5010629;28;20048;-69
2022/07/28 10:24:25;;;;;;;7.13;1.48;;;20.50;49.80;;;;;;5033080;28;20149;-70
2022/07/28 10:26:51;;;;;;;7.95;1.50;;;20.70;49.50;;;;;;5048411;28;20056;-70
2022/07/28 10:29:19;;;;;;;4.13;1.27;;;20.50;47.60;;;;;;5035987;28;20055;-69
2022/07/28 10:31:53;;;;;;;2.97;1.17;;;20.30;48.90;;;;;;5044674;28;20040;-70
2022/07/28 10:34:44;;;;;;;6.75;1.40;;;20.60;50.00;;;;;;5031547;28;20123;-70
2022/07/28 10:37:19;;;;;;;4.68;1.30;;;20.80;49.30;;;;;;5050723;28;20076;-70
2022/07/28 10:39:49;;;;;;;4.30;1.27;;;20.90;48.50;;;;;;5017064;28;20052;-70
2022/07/28 10:42:15;;;;;;;7.80;1.55;;;21.10;48.80;;;;;;5036766;28;20115;-72
2022/07/28 10:44:42;;;;;;;4.53;1.30;;;21.30;48.30;;;;;;5027147;28;20053;-71
2022/07/28 10:47:14;;;;;;;7.03;1.40;;;21.40;48.70;;;;;;5025655;28;20060;-72
2022/07/28 10:49:42;;;;;;;4.68;1.17;;;21.10;46.80;;;;;;5034678;28;20053;-71
2022/07/28 10:52:18;;;;;;;4.50;1.10;;;20.90;47.60;;;;;;5008268;28;20152;-73
2022/07/28 10:55:16;;;;;;;3.85;1.10;;;21.10;48.20;;;;;;5010548;28;20064;-71
2022/07/28 10:57:42;;;;;;;;;;;21.30;47.40;;;;;;5039658;28;20052;-71
2022/07/28 11:00:15;;;;;;;4.55;1.27;;;21.30;48.20;;;;;;5025393;28;20001;-71
2022/07/28 11:02:50;;;;;;;7.75;0.98;;;21.60;47.10;;;;;;5028380;28;20048;-71
2022/07/28 11:05:26;;;;;;;4.88;0.95;;;21.60;47.30;;;;;;5031438;28;20041;-71
2022/07/28 11:07:54;;;;;;;5.30;1.50;;;21.90;47.20;;;;;;5029677;28;20460;-71
2022/07/28 11:10:21;;;;;;;8.07;1.33;;;21.90;45.20;;;;;;5064073;28;20371;-71
2022/07/28 11:12:51;;;;;;;5.03;1.15;;;21.80;45.10;;;;;;5032403;28;20040;-71
2022/07/28 11:15:31;;;;;;;5.80;1.10;;;21.90;45.20;;;;;;5048276;28;20046;-71
2022/07/28 11:18:07;;;;;;;4.95;1.23;;;21.90;45.60;;;;;;5047205;28;20463;-71
2022/07/28 11:20:51;;;;;;;5.20;1.23;;;22.00;45.60;;;;;;5034342;28;20106;-70
2022/07/28 11:23:49;;;;;;;3.70;1.02;;;22.10;44.40;;;;;;5046534;28;20079;-70
2022/07/28 11:26:26;;;;;;;4.70;1.30;;;22.20;45.20;;;;;;5049726;28;20532;-71
2022/07/28 11:29:07;;;;;;;6.10;1.40;;;22.20;45.10;;;;;;5042957;28;20741;-70
2022/07/28 11:31:53;;;;;;;5.80;1.20;;;22.30;45.20;;;;;;5045484;28;20037;-71
2022/07/28 11:34:20;;;;;;;3.03;1.10;;;22.40;44.90;;;;;;5035178;28;20048;-70
2022/07/28 11:37:05;;;;;;;6.65;1.40;;;22.50;44.70;;;;;;5026962;28;20045;-70
2022/07/28 11:39:41;;;;;;;5.63;1.52;;;22.70;45.40;;;;;;5023152;28;20084;-70
2022/07/28 11:42:26;;;;;;;5.45;1.65;;;22.70;42.90;;;;;;5043430;28;20048;-70
2022/07/28 11:44:53;;;;;;;4.57;1.00;;;22.70;44.60;;;;;;5043641;28;20106;-70
2022/07/28 11:47:23;;;;;;;6.70;1.38;;;22.80;44.60;;;;;;5036498;28;20048;-70
2022/07/28 11:50:11;;;;;;;8.27;1.50;;;22.90;43.80;;;;;;5047155;28;20080;-71
2022/07/28 11:52:38;;;;;;;4.57;1.15;;;22.90;43.40;;;;;;5024042;28;20045;-70
2022/07/28 11:55:04;;;;;;;4.13;1.13;;;22.90;44.00;;;;;;5036549;28;20446;-70
2022/07/28 11:57:40;;;;;;;6.40;1.48;;;23.00;43.80;;;;;;5026501;28;20049;-70
2022/07/28 12:00:06;;;;;;;5.22;1.23;;;23.20;43.10;;;;;;5028256;28;20542;-72
2022/07/28 12:02:33;;;;;;;6.75;1.30;;;23.20;43.60;;;;;;5025570;28;20472;-71
2022/07/28 12:05:06;;;;;;;3.80;1.23;;;23.30;43.40;;;;;;5047633;28;20049;-72
2022/07/28 12:07:34;;;;;;;3.63;1.05;;;22.90;41.90;;;;;;5029051;28;20194;-69
2022/07/28 12:10:00;;;;;;;3.80;1.10;;;22.90;42.60;;;;;;5048138;28;20052;-70
2022/07/28 12:12:26;;;;;;;4.32;1.00;;;22.90;42.50;;;;;;5048415;28;20044;-70
2022/07/28 12:14:54;;;;;;;3.65;1.13;;;23.00;42.60;;;;;;5028980;28;20156;-72
2022/07/28 12:17:21;;;;;;;4.93;1.40;;;23.00;42.10;;;;;;5046731;28;20498;-70
2022/07/28 12:19:47;;;;;;;4.57;1.15;;;23.10;42.00;;;;;;5044873;28;20045;-71
2022/07/28 12:22:13;;;;;;;5.38;0.95;;;23.30;42.40;;;;;;5037331;28;20774;-71
2022/07/28 12:24:39;;;;;;;4.53;1.02;;;23.40;42.10;;;;;;5008076;28;20628;-72
2022/07/28 12:27:05;;;;;;;7.65;1.40;;;23.60;41.90;;;;;;5012794;28;20049;-70
2022/07/28 12:29:31;;;;;;;4.03;1.20;;;23.70;42.00;;;;;;5060156;28;20052;-70
2022/07/28 12:32:04;;;;;;;4.55;1.10;;;23.80;41.30;;;;;;5047755;28;20036;-71
2022/07/28 12:34:31;;;;;;;5.30;1.38;;;23.70;41.00;;;;;;5018160;28;20407;-72
2022/07/28 12:37:00;;;;;;;4.93;1.40;;;23.90;41.50;;;;;;5043322;28;20088;-72
2022/07/28 12:39:27;;;;;;;3.78;1.30;;;23.90;40.40;;;;;;5048508;28;20498;-71
2022/07/28 12:42:04;;;;;;;3.45;1.02;;;23.90;40.60;;;;;;5045926;28;20374;-71
2022/07/28 12:44:37;;;;;;;4.22;1.38;;;23.90;40.50;;;;;;5015175;28;20040;-71
2022/07/28 12:47:03;;;;;;;3.53;1.10;;;23.70;40.70;;;;;;5045799;28;20052;-70
2022/07/28 12:49:29;;;;;;;3.75;1.00;;;23.70;40.50;;;;;;5036161;28;20549;-71
2022/07/28 12:51:57;;;;;;;5.10;1.20;;;23.90;40.60;;;;;;5044885;28;20049;-70
2022/07/28 12:54:35;;;;;;;5.65;1.05;;;24.10;40.80;;;;;;5025215;28;20059;-74
2022/07/28 12:57:01;;;;;;;3.85;0.90;;;24.00;39.80;;;;;;5024557;28;20053;-74
2022/07/28 12:59:35;;;;;;;4.35;1.30;;;24.20;41.00;;;;;;5043118;28;20605;-74
2022/07/28 13:02:01;;;;;;;6.03;1.27;;;24.50;41.40;;;;;;5027465;28;20624;-75
2022/07/28 13:04:44;;;;;;;5.07;1.20;;;24.60;39.80;;;;;;5025348;28;20045;-75